Time;durP1;ratioP1;P1;durP2;ratioP2;P2;SDS_P1;SDS_P2;PMS_P1;PMS_P2;Temp;Humidity;BMP_temperature;BMP_pressure;BME280_temperature;BME280_humidity;BME280_pressure;Samples;Min_cycle;Max_cycle;Signal;HPM_P1;HPM_P2
2022/06/21 00:00:22;;;;;;;;;;;25.30;99.90;;;;;;5076593;28;20022;-80
2022/06/21 00:02:54;;;;;;;;;;;25.30;99.90;;;;;;5092871;28;19924;-81
2022/06/21 00:05:27;;;;;;;;;;;25.30;99.90;;;;;;5076522;28;19924;-80
2022/06/21 00:07:56;;;;;;;;;;;25.40;99.90;;;;;;5076657;28;20004;-79
2022/06/21 00:10:23;;;;;;;;;;;25.30;99.90;;;;;;5111585;28;19951;-80
2022/06/21 00:12:51;;;;;;;;;;;25.30;99.80;;;;;;5111305;28;19923;-80
2022/06/21 00:15:18;;;;;;;;;;;25.40;99.80;;;;;;5110129;28;19920;-80
2022/06/21 00:17:48;;;;;;;;;;;25.40;99.80;;;;;;5060023;28;19928;-80
2022/06/21 00:20:20;;;;;;;;;;;25.40;99.80;;;;;;5077179;28;20027;-80
2022/06/21 00:22:48;;;;;;;;;;;25.40;99.70;;;;;;5108442;28;20355;-81
2022/06/21 00:25:18;;;;;;;;;;;25.40;99.80;;;;;;5093549;28;19924;-80
2022/06/21 00:27:46;;;;;;;;;;;25.40;99.70;;;;;;5114852;28;19950;-80
2022/06/21 00:30:14;;;;;;;;;;;25.50;99.70;;;;;;5081278;28;19927;-80
2022/06/21 00:32:42;;;;;;;;;;;25.40;99.60;;;;;;5097478;28;19923;-80
2022/06/21 00:35:11;;;;;;;;;;;25.50;99.60;;;;;;5114621;28;19927;-80
2022/06/21 00:37:40;;;;;;;;;;;25.50;99.60;;;;;;5080578;28;19919;-80
2022/06/21 00:40:16;;;;;;;;;;;25.50;99.60;;;;;;5110104;28;20438;-80
2022/06/21 00:42:44;;;;;;;;;;;25.50;99.50;;;;;;5064027;28;20277;-80
2022/06/21 00:45:20;;;;;;;;;;;25.50;99.60;;;;;;5097573;28;19926;-80
2022/06/21 00:47:58;;;;;;;;;;;25.50;99.70;;;;;;5114274;28;19950;-80
2022/06/21 00:50:26;;;;;;;;;;;25.50;99.70;;;;;;5080756;28;20088;-81
2022/06/21 00:53:02;;;;;;;;;;;25.50;99.80;;;;;;5114995;28;20517;-81
2022/06/21 00:55:29;;;;;;;;;;;25.50;99.90;;;;;;5096975;28;20559;-81
2022/06/21 00:57:57;;;;;;;;;;;25.50;99.90;;;;;;5100461;28;19930;-81
2022/06/21 01:00:32;;;;;;;;;;;25.40;99.90;;;;;;5080344;28;20269;-80
2022/06/21 01:03:04;;;;;;;;;;;25.40;99.90;;;;;;5096786;28;19926;-80
2022/06/21 01:05:33;;;;;;;;;;;25.30;99.90;;;;;;5113718;28;20340;-81
2022/06/21 01:08:00;;;;;;;;;;;25.30;99.90;;;;;;5096249;28;20733;-80
2022/06/21 01:10:29;;;;;;;;;;;25.30;99.90;;;;;;5112960;28;20004;-80
2022/06/21 01:12:58;;;;;;;;;;;25.20;99.90;;;;;;5096054;28;20292;-81
2022/06/21 01:15:37;;;;;;;;;;;25.20;99.90;;;;;;5111851;28;20449;-80
2022/06/21 01:18:06;;;;;;;;;;;25.20;99.90;;;;;;5080120;28;19920;-80
2022/06/21 01:20:35;;;;;;;;;;;25.20;99.90;;;;;;5113694;28;19993;-80
2022/06/21 01:23:21;;;;;;;;;;;25.20;99.90;;;;;;5114321;28;20373;-80
2022/06/21 01:25:48;;;;;;;;;;;25.20;99.90;;;;;;5114864;28;19930;-84
2022/06/21 01:28:16;;;;;;;;;;;25.20;99.90;;;;;;5113447;28;19946;-81
2022/06/21 01:30:46;;;;;;;;;;;25.20;99.90;;;;;;5112875;28;20329;-80
2022/06/21 01:33:15;;;;;;;;;;;25.20;99.90;;;;;;5094425;28;19926;-81
2022/06/21 01:35:48;;;;;;;;;;;25.20;99.90;;;;;;5113258;28;19954;-81
2022/06/21 01:38:20;;;;;;;;;;;25.20;99.90;;;;;;5113619;28;20006;-82
2022/06/21 01:40:49;;;;;;;;;;;25.20;99.90;;;;;;5079447;28;19920;-81
2022/06/21 01:43:18;;;;;;;;;;;25.20;99.90;;;;;;5078722;28;20038;-80
2022/06/21 01:45:55;;;;;;;;;;;25.20;99.90;;;;;;5112999;28;19942;-80
2022/06/21 01:48:26;;;;;;;;;;;25.10;99.90;;;;;;5096821;28;20546;-80
2022/06/21 01:50:56;;;;;;;;;;;25.20;99.90;;;;;;5096072;28;19927;-80
2022/06/21 01:53:24;;;;;;;;;;;25.10;99.90;;;;;;5113125;28;19976;-79
2022/06/21 01:55:54;;;;;;;;;;;25.10;99.90;;;;;;5096125;28;19930;-80
2022/06/21 01:58:25;;;;;;;;;;;25.20;99.90;;;;;;5114604;28;20029;-79
2022/06/21 02:00:54;;;;;;;;;;;25.20;99.90;;;;;;5095615;28;19979;-79
2022/06/21 02:03:26;;;;;;;;;;;25.20;99.90;;;;;;5112028;28;19976;-79
2022/06/21 02:05:55;;;;;;;;;;;25.20;99.90;;;;;;5112873;28;19930;-80
2022/06/21 02:08:27;;;;;;;;;;;25.20;99.90;;;;;;5112833;28;19923;-79
2022/06/21 02:10:56;;;;;;;;;;;25.20;99.90;;;;;;5113485;27;19930;-79
2022/06/21 02:13:23;;;;;;;;;;;25.20;99.90;;;;;;5112304;28;19929;-79
2022/06/21 02:15:55;;;;;;;;;;;25.20;99.90;;;;;;5113553;28;19924;-79
2022/06/21 02:18:23;;;;;;;;;;;25.20;99.90;;;;;;5112466;28;20301;-79
2022/06/21 02:21:00;;;;;;;;;;;25.20;99.90;;;;;;5112169;28;19920;-79
2022/06/21 02:23:27;;;;;;;;;;;25.20;99.90;;;;;;5094914;28;20486;-79
2022/06/21 02:25:56;;;;;;;;;;;25.10;99.90;;;;;;5095263;28;19940;-79
2022/06/21 02:28:25;;;;;;;;;;;25.10;99.90;;;;;;5112162;28;20142;-80
2022/06/21 02:30:53;;;;;;;;;;;25.10;99.90;;;;;;5095399;28;19931;-79
2022/06/21 02:33:21;;;;;;;;;;;25.10;99.90;;;;;;5113631;28;20355;-79
2022/06/21 02:35:53;;;;;;;;;;;25.10;99.90;;;;;;5113242;28;20026;-79
2022/06/21 02:38:23;;;;;;;;;;;25.10;99.90;;;;;;5113512;28;19923;-79
2022/06/21 02:41:11;;;;;;;;;;;25.10;99.90;;;;;;5111907;28;20407;-80
2022/06/21 02:43:40;;;;;;;;;;;25.00;99.90;;;;;;5112060;28;19965;-80
2022/06/21 02:46:10;;;;;;;;;;;25.00;99.90;;;;;;5095394;28;19930;-80
2022/06/21 02:48:47;;;;;;;;;;;25.00;99.90;;;;;;5111920;28;19928;-80
2022/06/21 02:51:17;;;;;;;;;;;25.00;99.90;;;;;;5109758;28;19930;-80
2022/06/21 02:54:07;;;;;;;;;;;25.00;99.90;;;;;;5111378;28;19924;-80
2022/06/21 02:56:43;;;;;;;;;;;24.90;99.90;;;;;;5102336;28;19923;-80
2022/06/21 02:59:11;;;;;;;;;;;24.90;99.90;;;;;;5077626;28;19924;-80
2022/06/21 03:01:42;;;;;;;;;;;24.90;99.90;;;;;;5105030;28;19923;-79
2022/06/21 03:04:18;;;;;;;;;;;24.90;99.90;;;;;;5090376;28;19955;-80
2022/06/21 03:06:46;;;;;;;;;;;24.80;99.90;;;;;;5094833;28;19920;-79
2022/06/21 03:09:15;;;;;;;;;;;24.80;99.90;;;;;;5095617;28;20024;-80
2022/06/21 03:11:45;;;;;;;;;;;24.80;99.90;;;;;;5111331;28;19930;-80
2022/06/21 03:14:15;;;;;;;;;;;24.70;99.90;;;;;;5094340;28;20393;-80
2022/06/21 03:16:44;;;;;;;;;;;24.70;99.90;;;;;;5111753;28;20014;-80
2022/06/21 03:19:21;;;;;;;;;;;24.70;99.90;;;;;;5077255;28;20018;-80
2022/06/21 03:21:49;;;;;;;;;;;24.60;99.90;;;;;;5111187;28;20011;-80
2022/06/21 03:24:18;;;;;;;;;;;24.70;99.90;;;;;;5111065;28;19969;-80
2022/06/21 03:26:55;;;;;;;;;;;24.70;99.90;;;;;;5111895;28;20298;-80
2022/06/21 03:29:23;;;;;;;;;;;24.70;99.90;;;;;;5112261;28;19926;-80
2022/06/21 03:31:51;;;;;;;;;;;24.60;99.90;;;;;;5111177;28;19977;-81
2022/06/21 03:34:20;;;;;;;;;;;24.60;99.90;;;;;;5111072;28;19924;-80
2022/06/21 03:36:49;;;;;;;;;;;24.70;99.90;;;;;;5094014;28;19928;-80
2022/06/21 03:39:18;;;;;;;;;;;24.70;99.90;;;;;;5094240;28;19930;-80
2022/06/21 03:41:46;;;;;;;;;;;24.70;99.90;;;;;;5112532;28;19920;-80
2022/06/21 03:44:13;;;;;;;;;;;24.80;99.70;;;;;;5110953;28;19923;-80
2022/06/21 03:46:59;;;;;;;;;;;24.80;99.60;;;;;;5111944;28;19938;-80
2022/06/21 03:49:52;;;;;;;;;;;24.80;99.50;;;;;;5093690;28;19920;-81
2022/06/21 03:52:41;;;;;;;;;;;24.90;99.20;;;;;;5071595;28;19923;-80
2022/06/21 03:55:15;;;;;;;;;;;25.00;98.80;;;;;;5089913;28;19920;-80
2022/06/21 03:57:46;;;;;;;;;;;25.00;98.80;;;;;;5089747;28;19951;-81
2022/06/21 04:00:14;;;;;;;;;;;25.10;98.50;;;;;;5090488;28;19935;-80
2022/06/21 04:02:44;;;;;;;;;;;25.10;98.40;;;;;;5090750;28;19931;-80
2022/06/21 04:05:33;;;;;;;;;;;25.10;98.30;;;;;;5091475;28;20680;-80
2022/06/21 04:08:17;;;;;;;;;;;25.20;98.20;;;;;;5073371;28;19989;-80
2022/06/21 04:10:47;;;;;;;;;;;25.30;98.20;;;;;;5090404;28;20022;-80
2022/06/21 04:13:20;;;;;;;;;;;25.40;98.00;;;;;;5073925;28;19928;-81
2022/06/21 04:15:59;;;;;;;;;;;25.40;97.90;;;;;;5056240;28;19931;-80
2022/06/21 04:18:38;;;;;;;;;;;25.50;97.70;;;;;;5089865;28;19920;-80
2022/06/21 04:21:08;;;;;;;;;;;25.60;97.50;;;;;;5106646;28;19955;-80
2022/06/21 04:23:45;;;;;;;;;;;25.70;97.30;;;;;;5089973;28;19924;-80
2022/06/21 04:26:13;;;;;;;;;;;25.80;97.00;;;;;;5090217;28;19928;-80
2022/06/21 04:28:40;;;;;;;;;;;25.90;96.70;;;;;;5089783;28;20031;-80
2022/06/21 04:31:08;;;;;;;;;;;25.90;96.40;;;;;;5106785;28;19977;-80
2022/06/21 04:33:35;;;;;;;;;;;26.00;96.30;;;;;;5089441;28;19920;-80
2022/06/21 04:36:08;;;;;;;;;;;26.20;96.10;;;;;;5091160;28;19930;-80
2022/06/21 04:38:56;;;;;;;;;;;26.20;95.80;;;;;;5106805;28;19930;-80
2022/06/21 04:41:28;;;;;;;;;;;26.30;95.40;;;;;;5089330;28;19919;-80
2022/06/21 04:43:58;;;;;;;;;;;26.50;95.20;;;;;;5091034;28;19924;-80
2022/06/21 04:46:44;;;;;;;;;;;26.60;94.90;;;;;;5073280;28;19971;-80
2022/06/21 04:49:12;;;;;;;;;;;26.70;94.70;;;;;;5073107;28;19963;-80
2022/06/21 04:51:42;;;;;;;;;;;26.90;94.60;;;;;;5108397;28;19920;-80
2022/06/21 04:54:18;;;;;;;;;;;27.00;94.20;;;;;;5093375;28;19924;-80
2022/06/21 04:57:05;;;;;;;;;;;27.10;94.00;;;;;;5110644;28;19923;-80
2022/06/21 04:59:51;;;;;;;;;;;27.20;93.80;;;;;;5110357;28;19923;-80
2022/06/21 05:02:19;;;;;;;;;;;27.40;93.40;;;;;;5109761;28;19924;-80
2022/06/21 05:04:48;;;;;;;;;;;27.50;93.30;;;;;;5110843;28;19988;-80
2022/06/21 05:07:21;;;;;;;;;;;27.60;93.10;;;;;;5110035;28;19930;-79
2022/06/21 05:09:50;;;;;;;;;;;27.70;92.80;;;;;;5093297;28;20306;-79
2022/06/21 05:12:26;;;;;;;;;;;27.80;92.30;;;;;;5093348;28;20014;-80
2022/06/21 05:15:14;;;;;;;;;;;28.00;91.90;;;;;;5113810;28;20327;-80
2022/06/21 05:17:43;;;;;;;;;;;28.00;91.70;;;;;;5115041;28;19924;-80
2022/06/21 05:20:21;;;;;;;;;;;28.20;91.50;;;;;;5113611;28;19980;-80
2022/06/21 05:22:53;;;;;;;;;;;28.40;91.50;;;;;;5114915;28;19973;-79
2022/06/21 05:25:20;;;;;;;;;;;28.50;91.20;;;;;;5096680;28;19924;-80
2022/06/21 05:27:51;;;;;;;;;;;28.60;90.90;;;;;;5114565;28;19924;-80
2022/06/21 05:30:41;;;;;;;;;;;28.70;90.80;;;;;;5113768;28;20026;-80
2022/06/21 05:33:21;;;;;;;;;;;28.80;90.70;;;;;;5103090;28;19972;-80
2022/06/21 05:35:49;;;;;;;;;;;29.00;90.50;;;;;;5114528;28;20316;-80
2022/06/21 05:38:22;;;;;;;;;;;29.10;90.40;;;;;;5113323;28;19931;-81
2022/06/21 05:40:53;;;;;;;;;;;29.20;90.50;;;;;;5096825;28;20443;-80
2022/06/21 05:43:25;;;;;;;;;;;29.30;90.20;;;;;;5113373;28;20028;-80
2022/06/21 05:45:55;;;;;;;;;;;29.40;90.20;;;;;;5112690;28;19930;-80
2022/06/21 05:48:24;;;;;;;;;;;29.50;90.00;;;;;;5080040;28;19924;-80
2022/06/21 05:50:51;;;;;;;;;;;29.60;90.00;;;;;;5112790;28;19996;-81
2022/06/21 05:53:25;;;;;;;;;;;29.70;90.00;;;;;;5113205;28;20338;-80
2022/06/21 05:55:53;;;;;;;;;;;29.90;89.60;;;;;;5096670;28;19933;-80
2022/06/21 05:58:26;;;;;;;;;;;30.00;89.70;;;;;;5113215;28;19973;-80
2022/06/21 06:00:54;;;;;;;;;;;30.00;89.50;;;;;;5112822;28;19920;-80
2022/06/21 06:03:35;;;;;;;;;;;30.20;88.90;;;;;;5113048;28;19930;-81
2022/06/21 06:06:05;;;;;;;;;;;30.30;88.60;;;;;;5112829;28;19989;-81
2022/06/21 06:08:37;;;;;;;;;;;30.40;88.20;;;;;;5114253;28;19973;-81
2022/06/21 06:11:12;;;;;;;;;;;30.50;87.80;;;;;;5112735;28;20002;-81
2022/06/21 06:13:40;;;;;;;;;;;30.60;87.00;;;;;;5112694;28;19927;-80
2022/06/21 06:16:29;;;;;;;;;;;30.70;86.40;;;;;;5112101;28;20358;-81
2022/06/21 06:19:02;;;;;;;;;;;30.80;86.50;;;;;;5096096;28;19920;-81
2022/06/21 06:21:35;;;;;;;;;;;30.90;86.40;;;;;;5112663;28;20369;-81
2022/06/21 06:24:28;;;;;;;;;;;31.00;85.80;;;;;;5112863;28;19970;-81
2022/06/21 06:26:58;;;;;;;;;;;31.10;84.70;;;;;;5109027;28;19923;-81
2022/06/21 06:29:46;;;;;;;;;;;31.20;83.30;;;;;;5112890;28;20274;-80
2022/06/21 06:32:27;;;;;;;;;;;31.30;83.20;;;;;;5095784;28;19927;-81
2022/06/21 06:34:55;;;;;;;;;;;31.40;82.40;;;;;;5112065;28;19930;-81
2022/06/21 06:37:36;;;;;;;;;;;31.50;81.80;;;;;;5091121;28;19981;-81
2022/06/21 06:40:15;;;;;;;;;;;31.70;82.20;;;;;;5077947;28;20396;-81
2022/06/21 06:42:44;;;;;;;;;;;31.70;82.30;;;;;;5087929;28;20369;-81
2022/06/21 06:45:22;;;;;;;;;;;31.80;81.20;;;;;;5108415;28;19969;-81
2022/06/21 06:47:51;;;;;;;;;;;31.90;81.50;;;;;;5058173;28;19923;-81
2022/06/21 06:50:29;;;;;;;;;;;31.90;81.90;;;;;;5092811;28;19950;-81
2022/06/21 06:53:02;;;;;;;;;;;32.00;81.90;;;;;;5091855;28;19923;-81
2022/06/21 06:55:42;;;;;;;;;;;32.10;81.30;;;;;;5091713;28;19927;-81
2022/06/21 06:58:28;;;;;;;;;;;32.20;81.30;;;;;;5075094;28;19920;-81
2022/06/21 07:00:58;;;;;;;;;;;32.30;80.30;;;;;;5092603;28;19920;-82
2022/06/21 07:03:27;;;;;;;;;;;32.30;79.90;;;;;;5091218;28;19923;-80
2022/06/21 07:06:04;;;;;;;;;;;32.40;79.80;;;;;;5091262;28;19924;-81
2022/06/21 07:08:41;;;;;;;;;;;32.50;79.70;;;;;;5091250;28;19928;-79
2022/06/21 07:11:18;;;;;;;;;;;32.60;79.70;;;;;;5074460;28;19924;-79
2022/06/21 07:13:47;;;;;;;;;;;32.60;79.60;;;;;;5091436;28;19924;-78
2022/06/21 07:16:18;;;;;;;;;;;32.70;79.50;;;;;;5108201;28;19920;-78
2022/06/21 07:18:48;;;;;;;;;;;32.70;79.60;;;;;;5074322;28;19924;-78
2022/06/21 07:21:16;;;;;;;;;;;32.80;79.10;;;;;;5090971;28;19999;-79
2022/06/21 07:23:44;;;;;;;;;;;32.80;79.00;;;;;;5090946;28;19920;-79
2022/06/21 07:26:22;;;;;;;;;;;32.90;79.00;;;;;;5090754;28;20019;-79
2022/06/21 07:28:58;;;;;;;;;;;33.00;78.90;;;;;;5090490;28;19947;-79
2022/06/21 07:31:29;;;;;;;;;;;33.00;79.10;;;;;;5091023;28;19924;-79
2022/06/21 07:33:58;;;;;;;;;;;33.00;78.50;;;;;;5092588;28;20293;-80
2022/06/21 07:36:30;;;;;;;;;;;33.00;78.80;;;;;;5091671;28;19924;-79
2022/06/21 07:39:20;;;;;;;;;;;33.10;79.10;;;;;;5090932;28;20022;-78
2022/06/21 07:41:59;;;;;;;;;;;33.10;78.60;;;;;;5074548;28;20005;-78
2022/06/21 07:44:34;;;;;;;;;;;33.20;78.50;;;;;;5097033;28;19937;-79
2022/06/21 07:47:05;;;;;;;;;;;33.30;78.50;;;;;;5093899;28;20388;-80
2022/06/21 07:49:37;;;;;;;;;;;33.30;78.80;;;;;;5112013;28;19992;-79
2022/06/21 07:52:09;;;;;;;;;;;33.30;77.70;;;;;;5110657;28;19930;-79
2022/06/21 07:54:45;;;;;;;;;;;33.40;77.20;;;;;;5103873;28;19977;-78
2022/06/21 07:57:25;;;;;;;;;;;33.40;77.10;;;;;;5090427;28;19931;-79
2022/06/21 07:59:54;;;;;;;;;;;33.40;77.00;;;;;;5090339;28;20374;-80
2022/06/21 08:08:09;;;;;;;;;;;33.40;77.10;;;;;;5089875;28;19928;-79
2022/06/21 08:10:59;;;;;;;;;;;33.40;76.20;;;;;;5089894;28;19920;-79
2022/06/21 08:13:28;;;;;;;;;;;33.50;76.50;;;;;;5107166;28;20374;-79
2022/06/21 08:16:04;;;;;;;;;;;33.60;76.70;;;;;;5070863;28;19928;-79
2022/06/21 08:18:36;;;;;;;;;;;33.60;76.90;;;;;;5070271;28;19982;-79
2022/06/21 08:21:08;;;;;;;;;;;33.60;76.60;;;;;;5071171;28;19925;-79
2022/06/21 08:23:40;;;;;;;;;;;33.60;75.90;;;;;;5037010;28;19927;-79
2022/06/21 08:26:13;;;;;;;;;;;33.70;74.00;;;;;;5070845;28;19932;-79
2022/06/21 08:28:40;;;;;;;;;;;33.70;73.70;;;;;;5071112;28;19964;-79
2022/06/21 08:31:10;;;;;;;;;;;33.70;73.70;;;;;;5036110;28;19968;-81
2022/06/21 08:33:49;;;;;;;;;;;33.70;72.70;;;;;;5070193;28;20062;-81
2022/06/21 08:36:19;;;;;;;;;;;33.70;71.40;;;;;;5090700;28;20897;-81
2022/06/21 08:38:46;;;;;;;;;;;33.70;72.60;;;;;;5090822;28;20393;-79
2022/06/21 08:44:37;;;;;;;;;;;33.80;72.10;;;;;;5082853;28;19946;-79
2022/06/21 08:47:14;;;;;;;;;;;33.80;71.60;;;;;;5089928;28;20368;-79
2022/06/21 08:50:00;;;;;;;;;;;33.80;72.60;;;;;;5094096;28;20283;-79
2022/06/21 08:52:36;;;;;;;;;;;33.90;72.80;;;;;;5060155;28;19955;-80
2022/06/21 08:55:10;;;;;;;;;;;33.80;72.50;;;;;;5059879;28;19923;-80
2022/06/21 08:57:44;;;;;;;;;;;33.90;72.40;;;;;;5076883;28;19928;-80
2022/06/21 09:00:11;;;;;;;;;;;34.00;72.10;;;;;;5076798;28;19928;-79
2022/06/21 09:02:44;;;;;;;;;;;34.10;71.40;;;;;;5076709;28;19973;-80
2022/06/21 09:05:22;;;;;;;;;;;34.10;71.40;;;;;;5059995;28;19924;-79
2022/06/21 09:08:00;;;;;;;;;;;34.10;71.00;;;;;;5093028;28;20014;-79
2022/06/21 09:10:50;;;;;;;;;;;34.10;70.90;;;;;;5094053;28;19927;-79
2022/06/21 09:13:41;;;;;;;;;;;34.20;71.00;;;;;;5076715;28;20005;-79
2022/06/21 09:16:17;;;;;;;;;;;34.10;70.70;;;;;;5037100;28;19989;-79
2022/06/21 09:19:08;;;;;;;;;;;34.20;70.10;;;;;;5023200;28;19924;-79
2022/06/21 09:21:43;;;;;;;;;;;34.10;70.30;;;;;;5051318;28;19921;-78
2022/06/21 09:24:23;;;;;;;;;;;34.10;70.10;;;;;;5072673;28;20018;-79
2022/06/21 09:27:06;;;;;;;;;;;34.10;69.90;;;;;;5055913;28;19924;-79
2022/06/21 09:29:39;;;;;;;;;;;34.10;70.20;;;;;;5076023;28;19962;-79
2022/06/21 09:32:13;;;;;;;;;;;34.10;69.90;;;;;;5094231;28;19924;-79
2022/06/21 09:34:40;;;;;;;;;;;34.10;69.50;;;;;;5059730;28;19927;-80
2022/06/21 09:37:11;;;;;;;;;;;34.10;69.50;;;;;;5075743;28;20654;-79
2022/06/21 09:39:57;;;;;;;;;;;34.10;69.80;;;;;;5059795;28;20345;-79
2022/06/21 09:42:32;;;;;;;;;;;34.10;69.60;;;;;;5076082;28;19927;-79
2022/06/21 09:45:06;;;;;;;;;;;34.00;69.80;;;;;;5042338;28;19970;-79
2022/06/21 09:47:34;;;;;;;;;;;34.00;69.70;;;;;;5094117;28;20011;-79
2022/06/21 09:50:09;;;;;;;;;;;33.90;69.30;;;;;;5092782;28;20005;-79
2022/06/21 09:53:09;;;;;;;;;;;33.90;69.20;;;;;;5075306;28;19920;-79
2022/06/21 09:55:36;;;;;;;;;;;33.70;69.30;;;;;;5070413;28;19924;-79
2022/06/21 09:58:30;;;;;;;;;;;33.70;70.20;;;;;;5075412;28;20376;-79
2022/06/21 10:01:09;;;;;;;;;;;33.70;70.40;;;;;;5076840;28;19931;-79
2022/06/21 10:04:12;;;;;;;;;;;33.70;70.40;;;;;;5093590;28;19924;-79
2022/06/21 10:06:44;;;;;;;;;;;33.70;69.30;;;;;;5033834;28;20051;-79
2022/06/21 10:09:18;;;;;;;;;;;33.70;70.30;;;;;;5069131;28;19924;-79
2022/06/21 10:11:45;;;;;;;;;;;33.80;70.00;;;;;;5075404;28;19920;-80
2022/06/21 10:14:31;;;;;;;;;;;33.90;70.50;;;;;;5092270;28;19931;-79
2022/06/21 10:16:58;;;;;;;;;;;33.90;70.20;;;;;;5074633;28;19938;-79
2022/06/21 10:19:26;;;;;;;;;;;34.00;69.70;;;;;;5092027;28;20005;-79
2022/06/21 10:22:00;;;;;;;;;;;33.90;70.10;;;;;;5092033;28;19935;-79
2022/06/21 10:24:31;;;;;;;;;;;33.90;70.10;;;;;;5091546;28;20010;-79
2022/06/21 10:26:58;;;;;;;;;;;33.90;70.10;;;;;;5074134;28;19939;-79
2022/06/21 10:29:49;;;;;;;;;;;34.00;70.60;;;;;;5091708;28;19923;-79
2022/06/21 10:32:34;;;;;;;;;;;34.00;70.20;;;;;;5058099;28;19924;-78
2022/06/21 10:35:21;;;;;;;;;;;34.00;70.30;;;;;;5092488;28;20336;-78
2022/06/21 10:37:57;;;;;;;;;;;34.00;70.50;;;;;;5074933;28;19926;-80
2022/06/21 10:40:43;;;;;;;;;;;34.00;70.40;;;;;;5058581;28;20007;-81
2022/06/21 10:43:29;;;;;;;;;;;34.00;70.60;;;;;;5081426;28;19919;-78
2022/06/21 10:45:56;;;;;;;;;;;34.00;70.70;;;;;;5091412;28;19930;-80
2022/06/21 10:48:37;;;;;;;;;;;33.90;71.30;;;;;;5057709;28;19924;-79
2022/06/21 10:51:17;;;;;;;;;;;33.80;71.40;;;;;;5092831;28;20769;-80
2022/06/21 10:54:04;;;;;;;;;;;33.90;71.60;;;;;;5057813;28;19920;-78
2022/06/21 10:57:10;;;;;;;;;;;33.90;71.40;;;;;;5074502;28;20277;-79
2022/06/21 11:02:43;;;;;;;;;;;33.60;72.10;;;;;;5091314;28;19974;-79
2022/06/21 11:05:30;;;;;;;;;;;33.60;72.00;;;;;;5090554;28;20854;-79
2022/06/21 11:08:05;;;;;;;;;;;33.40;71.60;;;;;;5073765;28;19920;-79
2022/06/21 11:10:40;;;;;;;;;;;33.50;72.40;;;;;;5106793;28;19986;-79
2022/06/21 11:13:14;;;;;;;;;;;33.30;72.10;;;;;;5091013;28;20366;-79
2022/06/21 11:15:51;;;;;;;;;;;33.40;71.70;;;;;;5076291;28;19923;-80
2022/06/21 11:18:29;;;;;;;;;;;33.30;71.50;;;;;;5093905;28;19919;-79
2022/06/21 11:21:12;;;;;;;;;;;33.40;71.70;;;;;;5111782;28;20289;-80
2022/06/21 11:23:49;;;;;;;;;;;33.40;71.20;;;;;;5110184;28;19949;-79
2022/06/21 11:26:25;;;;;;;;;;;33.50;71.00;;;;;;5076544;28;20290;-79
2022/06/21 11:29:09;;;;;;;;;;;33.50;71.50;;;;;;5127435;27;20018;-79
2022/06/21 11:31:43;;;;;;;;;;;33.40;70.50;;;;;;5110224;28;19926;-79
2022/06/21 11:34:10;;;;;;;;;;;33.30;69.70;;;;;;5093276;28;20392;-80
2022/06/21 11:36:41;;;;;;;;;;;33.10;69.70;;;;;;5097260;28;20486;-81
2022/06/21 11:39:11;;;;;;;;;;;33.00;69.80;;;;;;5092638;28;20378;-80
2022/06/21 11:44:50;;;;;;;;;;;33.00;70.70;;;;;;5110995;28;20034;-78
2022/06/21 11:47:20;;;;;;;;;;;33.00;69.80;;;;;;5093179;28;19946;-78
2022/06/21 11:49:57;;;;;;;;;;;33.00;69.90;;;;;;5092914;28;20675;-78
2022/06/21 11:52:31;;;;;;;;;;;33.00;70.10;;;;;;5093582;28;19919;-78
2022/06/21 11:55:18;;;;;;;;;;;33.10;70.40;;;;;;5092858;28;20018;-78
2022/06/21 11:57:55;;;;;;;;;;;33.10;70.40;;;;;;5109971;28;19920;-78
2022/06/21 12:00:44;;;;;;;;;;;33.00;69.90;;;;;;5109899;28;19926;-81
2022/06/21 12:03:25;;;;;;;;;;;33.10;70.40;;;;;;5076920;28;19931;-80
2022/06/21 12:05:52;;;;;;;;;;;33.00;70.30;;;;;;5092577;28;19923;-80
2022/06/21 12:08:20;;;;;;;;;;;33.00;70.50;;;;;;5093349;28;19924;-81
2022/06/21 12:11:03;;;;;;;;;;;32.90;69.70;;;;;;5110529;27;19930;-80
2022/06/21 12:13:31;;;;;;;;;;;32.80;69.90;;;;;;5092148;28;19970;-79
2022/06/21 12:15:58;;;;;;;;;;;32.80;69.80;;;;;;5110548;28;19923;-80
2022/06/21 12:18:28;;;;;;;;;;;32.80;69.90;;;;;;5109853;28;19923;-79
2022/06/21 12:21:04;;;;;;;;;;;32.70;69.70;;;;;;5092928;28;20305;-79
2022/06/21 12:23:44;;;;;;;;;;;32.60;69.70;;;;;;5093205;28;19923;-79
2022/06/21 12:26:17;;;;;;;;;;;32.70;69.40;;;;;;5111375;28;19969;-79
2022/06/21 12:28:45;;;;;;;;;;;32.70;70.00;;;;;;5092892;28;20335;-80
2022/06/21 12:31:20;;;;;;;;;;;32.70;69.40;;;;;;5093559;28;19943;-80
2022/06/21 12:33:51;;;;;;;;;;;32.60;69.20;;;;;;5076895;28;19989;-80
2022/06/21 12:36:37;;;;;;;;;;;32.50;69.90;;;;;;5111182;28;20050;-80
2022/06/21 12:39:10;;;;;;;;;;;32.60;69.40;;;;;;5106407;28;19924;-80
2022/06/21 12:41:38;;;;;;;;;;;32.70;69.90;;;;;;5076703;28;20023;-81
2022/06/21 12:44:11;;;;;;;;;;;32.70;69.40;;;;;;5076434;28;19923;-80
2022/06/21 12:46:48;;;;;;;;;;;32.70;68.90;;;;;;5092640;28;19923;-81
2022/06/21 12:49:38;;;;;;;;;;;32.70;69.20;;;;;;5076214;28;19968;-81
2022/06/21 12:52:26;;;;;;;;;;;32.80;69.20;;;;;;5055672;28;19931;-81
2022/06/21 12:55:09;;;;;;;;;;;32.80;69.10;;;;;;5076017;28;20366;-81
2022/06/21 12:58:04;;;;;;;;;;;32.90;68.30;;;;;;5056125;28;20385;-80
2022/06/21 13:00:33;;;;;;;;;;;32.90;68.80;;;;;;5083317;28;19931;-80
2022/06/21 13:03:19;;;;;;;;;;;33.00;69.50;;;;;;5056116;28;19927;-81
2022/06/21 13:05:53;;;;;;;;;;;32.90;68.70;;;;;;5071978;28;19943;-81
2022/06/21 13:08:39;;;;;;;;;;;32.90;68.30;;;;;;5072443;28;20013;-80
2022/06/21 13:11:14;;;;;;;;;;;32.90;67.80;;;;;;5106472;28;19923;-80
2022/06/21 13:13:45;;;;;;;;;;;32.80;67.90;;;;;;5106503;28;19924;-80
2022/06/21 13:16:18;;;;;;;;;;;32.80;67.90;;;;;;5056141;28;19924;-80
2022/06/21 13:19:04;;;;;;;;;;;32.60;68.10;;;;;;5072183;28;19927;-80
2022/06/21 13:21:51;;;;;;;;;;;32.60;67.60;;;;;;5072700;28;19928;-80
2022/06/21 13:24:42;;;;;;;;;;;32.70;68.30;;;;;;5089098;28;19928;-80
2022/06/21 13:27:16;;;;;;;;;;;32.70;67.70;;;;;;5055522;28;19924;-80
2022/06/21 13:29:44;;;;;;;;;;;32.70;67.70;;;;;;5072780;28;19920;-80
2022/06/21 13:32:20;;;;;;;;;;;32.80;67.90;;;;;;5089427;28;20359;-80
2022/06/21 13:34:50;;;;;;;;;;;32.80;67.80;;;;;;5073246;28;19928;-79
2022/06/21 13:37:22;;;;;;;;;;;32.60;67.20;;;;;;5075564;28;19924;-80
2022/06/21 13:39:55;;;;;;;;;;;32.60;67.80;;;;;;5058928;28;19923;-81
2022/06/21 13:42:39;;;;;;;;;;;32.60;67.70;;;;;;5076234;28;19928;-81
2022/06/21 13:45:10;;;;;;;;;;;32.60;67.70;;;;;;5080615;28;19967;-78
2022/06/21 13:47:45;;;;;;;;;;;32.60;67.50;;;;;;5093798;28;20018;-81
2022/06/21 13:50:16;;;;;;;;;;;32.60;68.00;;;;;;5109600;28;19956;-82
2022/06/21 13:52:50;;;;;;;;;;;32.60;67.40;;;;;;5076112;28;19923;-80
2022/06/21 13:55:34;;;;;;;;;;;32.60;67.50;;;;;;5109919;28;19935;-82
2022/06/21 13:58:17;;;;;;;;;;;32.60;67.40;;;;;;5075422;28;19970;-81
2022/06/21 14:00:51;;;;;;;;;;;32.60;67.20;;;;;;5092117;28;19923;-81
2022/06/21 14:03:28;;;;;;;;;;;32.60;67.00;;;;;;5094009;28;19923;-81
2022/06/21 14:06:02;;;;;;;;;;;32.50;67.00;;;;;;5093279;28;20022;-83
2022/06/21 14:08:30;;;;;;;;;;;32.50;67.10;;;;;;5092372;28;19924;-82
2022/06/21 14:11:05;;;;;;;;;;;32.40;67.30;;;;;;5075485;28;19920;-82
2022/06/21 14:13:38;;;;;;;;;;;32.50;67.60;;;;;;5091691;28;19924;-80
2022/06/21 14:16:45;;;;;;;;;;;32.60;67.80;;;;;;5075331;28;19928;-81
2022/06/21 14:19:24;;;;;;;;;;;32.60;66.90;;;;;;5070643;28;20100;-81
2022/06/21 14:21:58;;;;;;;;;;;32.60;66.60;;;;;;5053890;28;20481;-82
2022/06/21 14:24:38;;;;;;;;;;;32.50;66.50;;;;;;5077002;28;19920;-81
2022/06/21 14:27:26;;;;;;;;;;;32.50;66.90;;;;;;5092705;28;19928;-81
2022/06/21 14:30:23;;;;;;;;;;;32.60;66.30;;;;;;5093154;28;19990;-82
2022/06/21 14:33:13;;;;;;;;;;;32.60;67.00;;;;;;5089918;28;19930;-81
2022/06/21 14:35:46;;;;;;;;;;;32.60;67.20;;;;;;5093224;28;19920;-80
2022/06/21 14:38:32;;;;;;;;;;;32.60;65.90;;;;;;5080434;28;19928;-81
2022/06/21 14:41:14;;;;;;;;;;;32.50;66.30;;;;;;5091162;28;19963;-81
2022/06/21 14:43:51;;;;;;;;;;;32.50;65.90;;;;;;5075219;28;19924;-80
2022/06/21 14:46:18;;;;;;;;;;;32.50;65.60;;;;;;5058212;28;19928;-80
2022/06/21 14:48:50;;;;;;;;;;;32.40;65.50;;;;;;5075012;28;19923;-80
2022/06/21 14:51:24;;;;;;;;;;;32.30;65.40;;;;;;5092530;28;19998;-82
2022/06/21 14:53:58;;;;;;;;;;;32.30;65.20;;;;;;5091885;28;19971;-80
2022/06/21 14:56:34;;;;;;;;;;;32.20;65.10;;;;;;5058545;28;19927;-80
2022/06/21 14:59:20;;;;;;;;;;;32.30;65.10;;;;;;5074560;28;19920;-80
2022/06/21 15:02:21;;;;;;;;;;;32.30;65.50;;;;;;5092127;28;19924;-81
2022/06/21 15:04:52;;;;;;;;;;;32.30;65.30;;;;;;5091535;28;19931;-81
2022/06/21 15:07:21;;;;;;;;;;;32.40;64.80;;;;;;5091380;28;19927;-81
2022/06/21 15:09:52;;;;;;;;;;;32.40;64.50;;;;;;5090209;28;19931;-81
2022/06/21 15:12:22;;;;;;;;;;;32.40;64.30;;;;;;5074542;28;20040;-81
2022/06/21 15:14:53;;;;;;;;;;;32.40;64.60;;;;;;5091142;28;19938;-81